createdAt,value
2022-12-08T00:01:16.850Z,14.60
2022-12-08T00:03:44.434Z,10.50
2022-12-08T00:06:48.936Z,13.50
2022-12-08T00:09:22.194Z,10.30
2022-12-08T00:11:50.213Z,7.50
2022-12-08T00:14:17.241Z,10.10
2022-12-08T00:16:44.566Z,10.20
2022-12-08T00:19:11.674Z,9.70
2022-12-08T00:21:38.696Z,11.20
2022-12-08T00:24:06.057Z,10.10
2022-12-08T00:26:33.101Z,13.30
2022-12-08T00:29:01.258Z,13.20
2022-12-08T00:31:28.471Z,8.80
2022-12-08T00:33:55.527Z,12.20
2022-12-08T00:36:22.620Z,10.90
2022-12-08T00:38:49.668Z,9.50
2022-12-08T00:41:45.085Z,10.70
2022-12-08T00:44:16.122Z,11.90
2022-12-08T00:46:43.445Z,7.90
2022-12-08T00:49:10.578Z,12.30
2022-12-08T00:51:38.110Z,7.70
2022-12-08T00:54:05.916Z,7.20
2022-12-08T00:56:33.234Z,10.50
2022-12-08T00:59:00.998Z,10.30
2022-12-08T01:01:28.376Z,11.10
2022-12-08T01:03:55.571Z,9.40
2022-12-08T01:06:22.690Z,10.10
2022-12-08T01:08:49.642Z,8.00
2022-12-08T01:11:19.941Z,12.70
2022-12-08T01:13:47.384Z,9.90
2022-12-08T01:16:27.071Z,6.20
2022-12-08T01:18:54.460Z,9.00
2022-12-08T01:21:22.228Z,8.20
2022-12-08T01:23:49.238Z,7.60
2022-12-08T01:26:18.541Z,8.40
2022-12-08T01:28:46.534Z,10.30
2022-12-08T01:31:17.661Z,8.40
2022-12-08T01:33:45.141Z,9.20
2022-12-08T01:36:23.816Z,8.50
2022-12-08T01:38:51.417Z,9.60
2022-12-08T01:41:21.538Z,9.10
2022-12-08T01:44:02.207Z,9.80
2022-12-08T01:46:31.592Z,8.00
2022-12-08T01:49:09.407Z,8.10
2022-12-08T01:51:42.814Z,6.60
2022-12-08T01:54:11.803Z,9.00
2022-12-08T01:56:54.206Z,8.40
2022-12-08T01:59:22.594Z,6.20
2022-12-08T02:01:51.900Z,6.80
2022-12-08T02:04:19.147Z,8.70
2022-12-08T02:06:49.157Z,5.60
2022-12-08T02:09:16.926Z,6.80
2022-12-08T02:11:43.860Z,7.40
2022-12-08T02:14:12.958Z,7.00
2022-12-08T02:16:40.970Z,7.10
2022-12-08T02:19:36.955Z,7.10
2022-12-08T02:22:18.243Z,7.80
2022-12-08T02:24:58.241Z,5.00
2022-12-08T02:27:35.783Z,6.40
2022-12-08T02:30:13.996Z,9.40
2022-12-08T02:32:55.787Z,8.60
2022-12-08T02:35:36.963Z,12.20
2022-12-08T02:38:15.896Z,9.00
2022-12-08T02:40:49.974Z,6.00
2022-12-08T02:43:50.850Z,6.10
2022-12-08T02:46:31.540Z,5.80
2022-12-08T02:49:00.440Z,7.70
2022-12-08T02:51:27.463Z,8.30
2022-12-08T02:53:55.260Z,8.20
2022-12-08T02:56:39.583Z,6.80
2022-12-08T02:59:36.100Z,6.00
2022-12-08T03:02:30.085Z,6.80
2022-12-08T03:05:26.840Z,7.40
2022-12-08T03:08:00.918Z,6.20
2022-12-08T03:10:41.025Z,6.60
2022-12-08T03:13:23.675Z,6.30
2022-12-08T03:15:53.011Z,3.80
2022-12-08T03:18:24.989Z,5.20
2022-12-08T03:20:52.467Z,9.00
2022-12-08T03:23:22.223Z,5.50
2022-12-08T03:25:58.308Z,6.00
2022-12-08T03:28:25.978Z,5.90
2022-12-08T03:30:58.317Z,3.80
2022-12-08T03:33:30.652Z,7.30
2022-12-08T03:36:00.021Z,7.60
2022-12-08T03:38:27.060Z,6.10
2022-12-08T03:41:12.948Z,7.80
2022-12-08T03:43:39.999Z,7.10
2022-12-08T03:46:06.997Z,5.30
2022-12-08T03:48:33.966Z,5.70
2022-12-08T03:51:00.945Z,4.50
2022-12-08T03:53:27.880Z,5.30
2022-12-08T03:55:55.031Z,5.30
2022-12-08T03:58:21.988Z,6.50
2022-12-08T04:00:49.023Z,5.60
2022-12-08T04:03:16.170Z,5.00
2022-12-08T04:05:43.528Z,4.90
2022-12-08T04:08:10.561Z,4.60
2022-12-08T04:10:37.698Z,5.40
2022-12-08T04:13:04.593Z,7.40
2022-12-08T04:15:31.620Z,6.30
2022-12-08T04:17:58.674Z,5.80
2022-12-08T04:20:25.576Z,4.90
2022-12-08T04:22:52.564Z,4.70
2022-12-08T04:25:19.811Z,5.20
2022-12-08T04:27:46.802Z,5.80
2022-12-08T04:30:14.013Z,4.30
2022-12-08T04:32:45.886Z,5.00
2022-12-08T04:35:14.495Z,3.40
2022-12-08T04:37:41.983Z,5.20
2022-12-08T04:40:09.333Z,4.40
2022-12-08T04:42:36.791Z,4.00
2022-12-08T04:45:04.706Z,5.60
2022-12-08T04:47:31.639Z,7.20
2022-12-08T04:49:58.595Z,5.00
2022-12-08T04:52:25.581Z,4.30
2022-12-08T04:54:52.589Z,4.40
2022-12-08T04:57:19.806Z,4.60
2022-12-08T04:59:46.882Z,4.40
2022-12-08T05:02:14.057Z,4.00
2022-12-08T05:04:41.179Z,4.60
2022-12-08T05:07:08.228Z,4.50
2022-12-08T05:09:35.252Z,4.80
2022-12-08T05:12:02.332Z,3.90
2022-12-08T05:14:29.268Z,4.30
2022-12-08T05:16:56.334Z,4.40
2022-12-08T05:19:23.574Z,3.70
2022-12-08T05:21:50.514Z,3.60
2022-12-08T05:24:17.568Z,5.60
2022-12-08T05:26:44.612Z,4.60
2022-12-08T05:29:11.656Z,3.20
2022-12-08T05:31:38.769Z,4.20
2022-12-08T05:34:05.972Z,4.50
2022-12-08T05:36:33.210Z,3.20
2022-12-08T05:39:00.441Z,4.50
2022-12-08T05:41:27.420Z,3.20
2022-12-08T05:43:54.458Z,5.40
2022-12-08T05:46:21.560Z,4.60
2022-12-08T05:48:48.659Z,5.10
2022-12-08T05:51:21.537Z,4.40
2022-12-08T05:53:50.029Z,4.50
2022-12-08T05:56:18.222Z,3.50
2022-12-08T05:58:45.766Z,5.00
2022-12-08T06:01:27.856Z,5.10
2022-12-08T06:03:55.755Z,4.50
2022-12-08T06:06:22.694Z,4.50
2022-12-08T06:08:49.923Z,5.60
2022-12-08T06:11:21.785Z,4.90
2022-12-08T06:13:49.670Z,5.20
2022-12-08T06:16:17.725Z,5.40
2022-12-08T06:18:45.625Z,3.50
2022-12-08T06:21:14.583Z,4.40
2022-12-08T06:23:42.440Z,4.20
2022-12-08T06:26:12.155Z,4.30
2022-12-08T06:28:40.225Z,4.70
2022-12-08T06:31:22.003Z,5.40
2022-12-08T06:33:49.783Z,7.50
2022-12-08T06:36:19.688Z,4.70
2022-12-08T06:38:46.947Z,3.60
2022-12-08T06:41:15.917Z,4.10
2022-12-08T06:43:43.825Z,4.10
2022-12-08T06:46:15.012Z,4.00
2022-12-08T06:48:42.522Z,3.60
2022-12-08T06:51:11.609Z,4.60
2022-12-08T06:53:39.450Z,5.30
2022-12-08T06:56:07.210Z,3.50
2022-12-08T06:58:35.661Z,5.30
2022-12-08T07:01:13.453Z,4.60
2022-12-08T07:03:41.996Z,6.70
2022-12-08T07:06:14.171Z,3.90
2022-12-08T07:08:41.142Z,4.80
2022-12-08T07:11:16.552Z,5.30
2022-12-08T07:13:46.732Z,3.30
2022-12-08T07:16:13.970Z,3.40
2022-12-08T07:18:42.728Z,3.40
2022-12-08T07:21:11.738Z,5.70
2022-12-08T07:23:38.915Z,3.40
2022-12-08T07:26:08.516Z,5.20
2022-12-08T07:28:38.056Z,3.80
2022-12-08T07:31:06.943Z,4.60
2022-12-08T07:33:35.258Z,3.50
2022-12-08T07:36:05.398Z,3.50
2022-12-08T07:38:32.587Z,4.40
2022-12-08T07:40:59.876Z,3.10
2022-12-08T07:43:27.236Z,3.90
2022-12-08T07:45:54.353Z,4.20
2022-12-08T07:48:21.387Z,5.60
2022-12-08T07:50:48.487Z,5.30
2022-12-08T07:53:15.627Z,4.70
2022-12-08T07:55:43.800Z,2.90
2022-12-08T07:58:11.626Z,3.70
2022-12-08T08:00:39.002Z,5.30
2022-12-08T08:03:06.532Z,6.40
2022-12-08T08:05:33.530Z,3.50
2022-12-08T08:08:00.628Z,4.50
2022-12-08T08:10:27.816Z,3.00
2022-12-08T08:12:55.086Z,4.30
2022-12-08T08:15:22.310Z,4.70
2022-12-08T08:17:53.681Z,4.70
2022-12-08T08:20:21.451Z,4.90
2022-12-08T08:22:49.903Z,6.20
2022-12-08T08:25:18.206Z,7.40
2022-12-08T08:27:45.971Z,4.10
2022-12-08T08:30:20.097Z,6.70
2022-12-08T08:32:48.273Z,13.00
2022-12-08T08:35:15.495Z,18.90
2022-12-08T08:37:48.364Z,28.80
2022-12-08T08:40:16.723Z,34.50
2022-12-08T08:42:43.723Z,42.80
2022-12-08T08:45:11.488Z,48.70
2022-12-08T08:47:38.470Z,57.40
2022-12-08T08:50:06.330Z,59.50
2022-12-08T08:52:33.508Z,62.00
2022-12-08T08:55:00.515Z,65.30
2022-12-08T08:57:27.593Z,70.90
2022-12-08T08:59:54.687Z,71.40
2022-12-08T09:02:22.013Z,67.80
2022-12-08T09:04:49.250Z,65.90
2022-12-08T09:07:17.023Z,64.50
2022-12-08T09:09:44.092Z,64.30
2022-12-08T09:12:11.549Z,64.10
2022-12-08T09:14:38.850Z,66.70
2022-12-08T09:17:11.561Z,66.30
2022-12-08T09:19:38.555Z,61.50
2022-12-08T09:22:06.240Z,69.10
2022-12-08T09:24:33.185Z,68.70
2022-12-08T09:27:00.394Z,63.40
2022-12-08T09:29:32.555Z,68.60
2022-12-08T09:32:02.555Z,65.40
2022-12-08T09:34:29.747Z,66.90
2022-12-08T09:36:56.797Z,62.30
2022-12-08T09:39:23.981Z,64.50
2022-12-08T09:41:58.784Z,66.40
2022-12-08T09:44:54.935Z,62.90
2022-12-08T09:47:33.729Z,60.20
2022-12-08T09:50:14.363Z,59.50
2022-12-08T09:52:45.813Z,63.10
2022-12-08T09:55:21.294Z,59.10
2022-12-08T09:57:58.072Z,56.10
2022-12-08T10:00:25.357Z,57.80
2022-12-08T10:02:52.583Z,54.30
2022-12-08T10:05:19.849Z,55.10
2022-12-08T10:08:08.573Z,55.10
2022-12-08T10:10:43.195Z,47.60
2022-12-08T10:13:33.488Z,51.00
2022-12-08T10:16:29.540Z,50.80
2022-12-08T10:19:22.022Z,50.30
2022-12-08T10:21:50.422Z,51.10
2022-12-08T10:24:32.857Z,49.70
2022-12-08T10:27:01.648Z,49.60
2022-12-08T10:29:29.542Z,46.00
2022-12-08T10:31:59.918Z,46.60
2022-12-08T10:34:27.115Z,47.20
2022-12-08T10:36:56.902Z,50.30
2022-12-08T10:39:37.708Z,46.90
2022-12-08T10:42:09.535Z,49.00
2022-12-08T10:45:08.777Z,47.20
2022-12-08T10:47:42.492Z,43.30
2022-12-08T10:50:35.153Z,45.40
2022-12-08T10:53:02.078Z,45.80
2022-12-08T10:55:39.456Z,46.30
2022-12-08T10:58:06.501Z,43.70
2022-12-08T11:00:34.721Z,44.10
2022-12-08T11:03:05.683Z,41.60
2022-12-08T11:05:35.900Z,42.50
2022-12-08T11:08:05.080Z,44.00
2022-12-08T11:10:42.991Z,40.50
2022-12-08T11:13:26.414Z,42.40
2022-12-08T11:15:57.390Z,43.40
2022-12-08T11:18:45.028Z,39.00
2022-12-08T11:21:15.802Z,36.50
2022-12-08T11:23:47.945Z,36.20
2022-12-08T11:26:32.628Z,34.00
2022-12-08T11:28:59.717Z,33.40
2022-12-08T11:31:34.824Z,34.70
2022-12-08T11:34:03.423Z,33.20
2022-12-08T11:36:35.536Z,33.70
2022-12-08T11:39:07.783Z,32.20
2022-12-08T11:41:41.678Z,32.00
2022-12-08T11:44:08.564Z,30.00
2022-12-08T11:46:50.277Z,27.50
2022-12-08T11:49:18.293Z,31.50
2022-12-08T11:51:54.245Z,27.40
2022-12-08T11:54:31.128Z,27.30
2022-12-08T11:57:00.938Z,26.80
2022-12-08T11:59:39.741Z,26.60
2022-12-08T12:02:15.116Z,25.50
2022-12-08T12:04:45.979Z,23.60
2022-12-08T12:07:26.208Z,23.30
2022-12-08T12:10:03.737Z,23.70
2022-12-08T12:12:48.743Z,24.10
2022-12-08T12:15:58.590Z,23.00
2022-12-08T12:19:00.710Z,21.20
2022-12-08T12:21:31.723Z,20.30
2022-12-08T12:24:27.535Z,22.00
2022-12-08T12:27:16.420Z,19.00
2022-12-08T12:29:55.772Z,18.20
2022-12-08T12:32:24.938Z,17.00
2022-12-08T12:35:00.400Z,16.10
2022-12-08T12:37:42.928Z,18.20
2022-12-08T12:40:22.719Z,17.70
2022-12-08T12:42:55.776Z,19.00
2022-12-08T12:45:27.777Z,17.90
2022-12-08T12:48:00.593Z,21.00
2022-12-08T12:50:33.889Z,18.40
2022-12-08T12:53:10.596Z,19.70
2022-12-08T12:55:56.344Z,18.10
2022-12-08T12:58:30.033Z,15.80
2022-12-08T13:01:15.434Z,17.90
2022-12-08T13:03:50.053Z,19.70
2022-12-08T13:06:33.871Z,18.50
2022-12-08T13:09:01.107Z,18.70
2022-12-08T13:11:28.287Z,18.30
2022-12-08T13:14:01.640Z,17.80
2022-12-08T13:16:33.548Z,18.70
2022-12-08T13:19:04.320Z,16.50
2022-12-08T13:21:37.964Z,21.90
2022-12-08T13:24:13.733Z,22.40
2022-12-08T13:27:10.963Z,30.50
2022-12-08T13:29:39.279Z,36.20
2022-12-08T13:32:09.901Z,36.30
2022-12-08T13:34:46.070Z,30.00
2022-12-08T13:37:16.324Z,39.30
2022-12-08T13:39:59.198Z,38.10
2022-12-08T13:42:50.617Z,32.20
2022-12-08T13:46:31.904Z,34.50
2022-12-08T13:49:09.603Z,33.90
2022-12-08T13:57:12.189Z,34.60
2022-12-08T13:59:44.894Z,34.10
2022-12-08T14:02:29.009Z,30.70
2022-12-08T14:07:45.087Z,33.20
2022-12-08T14:10:32.347Z,32.60
2022-12-08T14:13:07.012Z,31.80
2022-12-08T14:15:38.429Z,29.60
2022-12-08T14:18:07.195Z,30.70
2022-12-08T14:20:57.659Z,29.00
2022-12-08T14:23:22.652Z,29.70
2022-12-08T14:25:49.854Z,26.40
2022-12-08T14:28:17.042Z,26.50
2022-12-08T14:30:44.483Z,25.20
2022-12-08T14:33:17.028Z,27.10
2022-12-08T14:35:51.586Z,25.70
2022-12-08T14:38:20.972Z,29.20
2022-12-08T14:40:50.191Z,25.80
2022-12-08T14:43:26.344Z,29.50
2022-12-08T14:46:20.857Z,27.00
2022-12-08T14:48:48.123Z,22.50
2022-12-08T14:51:21.476Z,24.70
2022-12-08T14:54:12.306Z,25.60
2022-12-08T14:56:52.328Z,23.90
2022-12-08T14:59:35.440Z,24.20
2022-12-08T15:02:14.606Z,24.10
2022-12-08T15:04:47.808Z,22.40
2022-12-08T15:07:16.305Z,23.40
2022-12-08T15:09:50.325Z,24.10
2022-12-08T15:12:27.165Z,20.10
2022-12-08T15:15:22.477Z,25.30
2022-12-08T15:17:51.941Z,21.90
2022-12-08T15:20:41.003Z,25.80
2022-12-08T15:23:21.506Z,22.00
2022-12-08T15:25:49.411Z,21.90
2022-12-08T15:28:21.264Z,20.30
2022-12-08T15:30:51.065Z,22.40
2022-12-08T15:33:18.229Z,22.60
2022-12-08T15:35:45.441Z,19.70
2022-12-08T15:38:27.246Z,22.30
2022-12-08T15:40:55.568Z,19.80
2022-12-08T15:43:22.856Z,20.70
2022-12-08T15:45:59.172Z,20.70
2022-12-08T15:48:29.072Z,21.30
2022-12-08T15:50:56.843Z,19.80
2022-12-08T15:53:23.895Z,17.80
2022-12-08T15:56:19.078Z,17.70
2022-12-08T15:58:53.606Z,18.40
2022-12-08T16:01:22.068Z,21.70
2022-12-08T16:09:39.606Z,18.60
2022-12-08T16:13:06.958Z,17.40
2022-12-08T16:15:50.154Z,20.30
2022-12-08T16:18:14.122Z,15.00
2022-12-08T16:21:07.482Z,18.00
2022-12-08T16:23:42.217Z,16.10
2022-12-08T16:29:16.703Z,15.90
2022-12-08T16:31:43.704Z,17.40
2022-12-08T16:34:10.971Z,18.10
2022-12-08T16:36:39.194Z,17.80
2022-12-08T16:39:06.618Z,15.40
2022-12-08T16:41:52.278Z,14.40
2022-12-08T16:44:20.037Z,14.40
2022-12-08T16:46:51.888Z,17.10
2022-12-08T16:49:22.413Z,16.00
2022-12-08T16:51:49.327Z,17.90
2022-12-08T16:54:16.316Z,14.70
2022-12-08T16:56:43.217Z,16.10
2022-12-08T16:59:10.315Z,16.00
2022-12-08T17:01:37.513Z,14.30
2022-12-08T17:06:54.107Z,14.90
2022-12-08T17:09:21.161Z,15.50
2022-12-08T17:11:48.152Z,12.30
2022-12-08T17:14:15.639Z,14.20
2022-12-08T17:16:43.478Z,14.50
2022-12-08T17:19:13.563Z,15.30
2022-12-08T17:21:40.643Z,13.40
2022-12-08T17:24:07.895Z,14.80
2022-12-08T17:26:35.566Z,13.60
2022-12-08T17:29:04.071Z,14.20
2022-12-08T17:31:32.760Z,12.50
2022-12-08T17:34:02.112Z,11.60
2022-12-08T17:36:29.353Z,14.60
2022-12-08T17:38:58.625Z,12.80
2022-12-08T17:41:25.565Z,14.20
2022-12-08T17:43:52.511Z,16.10
2022-12-08T17:46:21.110Z,16.20
2022-12-08T17:48:48.208Z,12.30
2022-12-08T17:51:15.506Z,15.60
2022-12-08T17:53:43.039Z,11.60
2022-12-08T17:56:20.231Z,11.90
2022-12-08T17:58:54.051Z,13.40
2022-12-08T18:01:22.466Z,11.30
2022-12-08T18:03:49.920Z,13.70
2022-12-08T18:06:17.906Z,11.50
2022-12-08T18:08:45.525Z,13.40
2022-12-08T18:11:21.001Z,15.00
2022-12-08T18:13:51.627Z,12.00
2022-12-08T18:16:21.103Z,16.80
2022-12-08T18:18:48.548Z,14.80
2022-12-08T18:21:21.558Z,19.40
2022-12-08T18:23:50.840Z,11.90
2022-12-08T18:26:18.022Z,11.30
2022-12-08T18:28:45.043Z,11.20
2022-12-08T18:31:15.297Z,13.00
2022-12-08T18:33:44.471Z,14.90
2022-12-08T18:36:15.118Z,9.80
2022-12-08T18:38:42.438Z,8.90
2022-12-08T18:41:17.102Z,10.90
2022-12-08T18:43:44.312Z,11.40
2022-12-08T18:46:12.805Z,12.30
2022-12-08T18:48:42.587Z,8.70
2022-12-08T18:51:15.361Z,11.50
2022-12-08T18:53:42.894Z,9.40
2022-12-08T18:56:21.929Z,10.10
2022-12-08T18:58:49.017Z,11.00
2022-12-08T19:01:16.319Z,10.70
2022-12-08T19:03:58.499Z,11.10
2022-12-08T19:06:30.569Z,12.00
2022-12-08T19:08:57.980Z,12.20
2022-12-08T19:11:28.062Z,11.40
2022-12-08T19:13:55.848Z,11.90
2022-12-08T19:16:23.328Z,13.00
2022-12-08T19:18:50.501Z,16.10
2022-12-08T19:21:17.630Z,28.90
2022-12-08T19:23:44.736Z,40.00
2022-12-08T19:26:12.511Z,57.30
2022-12-08T19:28:41.204Z,63.90
2022-12-08T19:31:10.232Z,74.90
2022-12-08T19:33:38.392Z,83.30
2022-12-08T19:36:07.459Z,93.00
2022-12-08T19:38:54.426Z,96.80
2022-12-08T19:41:40.324Z,110.30
2022-12-08T19:44:29.588Z,111.10
2022-12-08T19:46:56.765Z,122.80
2022-12-08T19:49:23.878Z,127.30
2022-12-08T19:51:50.981Z,137.50
2022-12-08T19:54:19.539Z,135.00
2022-12-08T19:56:47.898Z,154.20
2022-12-08T19:59:16.633Z,149.30
2022-12-08T20:01:44.636Z,161.30
2022-12-08T20:04:15.497Z,153.10
2022-12-08T20:06:43.118Z,155.00
2022-12-08T20:09:10.664Z,158.20
2022-12-08T20:11:38.303Z,148.90
2022-12-08T20:14:05.812Z,147.80
2022-12-08T20:16:33.274Z,153.50
2022-12-08T20:19:00.499Z,147.10
2022-12-08T20:21:28.033Z,153.40
2022-12-08T20:23:55.093Z,150.20
2022-12-08T20:26:23.905Z,146.40
2022-12-08T20:28:51.597Z,145.70
2022-12-08T20:31:24.691Z,143.20
2022-12-08T20:33:52.481Z,137.80
2022-12-08T20:36:21.270Z,138.00
2022-12-08T20:38:50.324Z,142.00
2022-12-08T20:41:18.314Z,137.00
2022-12-08T20:43:47.169Z,130.30
2022-12-08T20:46:16.761Z,137.30
2022-12-08T20:48:44.944Z,132.10
2022-12-08T20:51:17.124Z,128.00
2022-12-08T20:53:44.405Z,123.90
2022-12-08T20:56:20.274Z,125.40
2022-12-08T20:58:48.370Z,130.20
2022-12-08T21:01:18.687Z,119.70
2022-12-08T21:03:46.996Z,125.00
2022-12-08T21:06:15.465Z,126.70
2022-12-08T21:08:43.075Z,120.60
2022-12-08T21:11:10.671Z,116.90
2022-12-08T21:13:39.076Z,126.60
2022-12-08T21:16:09.390Z,117.50
2022-12-08T21:18:39.677Z,116.10
2022-12-08T21:21:14.429Z,119.50
2022-12-08T21:23:42.730Z,119.90
2022-12-08T21:26:19.013Z,107.10
2022-12-08T21:28:46.658Z,114.80
2022-12-08T21:31:17.012Z,113.40
2022-12-08T21:33:45.196Z,108.20
2022-12-08T21:36:14.636Z,110.20
2022-12-08T21:38:42.973Z,106.50
2022-12-08T21:41:16.576Z,107.90
2022-12-08T21:43:43.766Z,107.80
2022-12-08T21:46:17.487Z,102.60
2022-12-08T21:48:44.962Z,104.40
2022-12-08T21:51:12.236Z,103.10
2022-12-08T21:53:39.309Z,104.40
2022-12-08T21:56:10.143Z,96.10
2022-12-08T21:58:39.857Z,102.60
2022-12-08T22:01:09.044Z,95.60
2022-12-08T22:03:38.333Z,100.80
2022-12-08T22:06:07.529Z,96.20
2022-12-08T22:08:34.867Z,96.20
2022-12-08T22:11:02.857Z,92.10
2022-12-08T22:13:30.337Z,93.30
2022-12-08T22:15:58.938Z,94.00
2022-12-08T22:18:26.294Z,91.10
2022-12-08T22:20:54.041Z,90.40
2022-12-08T22:23:22.104Z,90.50
2022-12-08T22:26:03.063Z,91.30
2022-12-08T22:28:35.472Z,91.90
2022-12-08T22:31:19.654Z,87.60
2022-12-08T22:33:48.887Z,84.60
2022-12-08T22:36:26.583Z,84.00
2022-12-08T22:38:55.273Z,86.00
2022-12-08T22:41:22.832Z,85.00
2022-12-08T22:43:50.904Z,83.00
2022-12-08T22:46:20.757Z,81.60
2022-12-08T22:48:48.688Z,79.80
2022-12-08T22:51:16.217Z,78.20
2022-12-08T22:53:45.022Z,82.30
2022-12-08T22:56:13.554Z,85.20
2022-12-08T22:58:41.900Z,79.60
2022-12-08T23:01:09.482Z,80.20
2022-12-08T23:03:36.498Z,76.80
2022-12-08T23:06:12.537Z,79.40
2022-12-08T23:08:40.687Z,74.80
2022-12-08T23:11:08.158Z,79.30
2022-12-08T23:13:35.244Z,72.50
2022-12-08T23:16:02.456Z,78.00
2022-12-08T23:18:29.648Z,76.30
2022-12-08T23:20:56.678Z,74.10
2022-12-08T23:23:23.912Z,73.60
2022-12-08T23:25:50.949Z,73.30
2022-12-08T23:28:18.146Z,72.30
2022-12-08T23:30:45.687Z,74.40
2022-12-08T23:33:13.361Z,71.00
2022-12-08T23:35:40.521Z,70.80
2022-12-08T23:38:07.614Z,69.60
2022-12-08T23:40:34.703Z,68.10
2022-12-08T23:43:01.747Z,71.80
2022-12-08T23:45:29.005Z,66.60
2022-12-08T23:47:56.142Z,65.30
2022-12-08T23:50:23.103Z,69.10
2022-12-08T23:52:50.055Z,71.70
2022-12-08T23:55:17.073Z,59.00
2022-12-08T23:57:44.194Z,63.20
